Time;durP1;ratioP1;P1;durP2;ratioP2;P2;SDS_P1;SDS_P2;PMS_P1;PMS_P2;Temp;Humidity;BMP_temperature;BMP_pressure;BME280_temperature;BME280_humidity;BME280_pressure;Samples;Min_cycle;Max_cycle;Signal;HPM_P1;HPM_P2
2024/04/03 00:00:45;;;;;;;3.80;2.67;;;11.30;99.90;;;;;;5059162;28;20241;-72
2024/04/03 00:03:11;;;;;;;2.47;2.27;;;11.30;99.90;;;;;;5045558;28;20971;-71
2024/04/03 00:05:37;;;;;;;2.20;1.90;;;11.30;99.90;;;;;;5062198;28;20305;-72
2024/04/03 00:08:03;;;;;;;2.00;1.80;;;11.30;99.90;;;;;;5059458;28;20454;-71
2024/04/03 00:10:29;;;;;;;3.00;2.23;;;11.30;99.90;;;;;;5060781;28;20457;-72
2024/04/03 00:12:55;;;;;;;6.93;3.27;;;11.30;99.90;;;;;;5059235;28;20468;-72
2024/04/03 00:15:20;;;;;;;9.93;8.70;;;11.30;99.90;;;;;;5060897;28;20245;-72
2024/04/03 00:17:46;;;;;;;8.00;7.20;;;11.30;99.90;;;;;;5042717;28;20226;-72
2024/04/03 00:20:12;;;;;;;9.93;7.50;;;11.30;99.90;;;;;;5063718;28;20215;-71
2024/04/03 00:22:37;;;;;;;7.63;6.93;;;11.30;99.90;;;;;;5062500;28;20233;-72
2024/04/03 00:25:03;;;;;;;4.57;4.17;;;11.20;99.90;;;;;;5057371;28;20268;-73
2024/04/03 00:27:29;;;;;;;3.83;3.13;;;11.30;99.90;;;;;;5046373;28;20225;-73
2024/04/03 00:29:55;;;;;;;7.70;2.97;;;11.30;99.90;;;;;;5039811;28;20212;-73
2024/04/03 00:32:20;;;;;;;6.77;5.03;;;11.20;99.90;;;;;;5062636;28;20299;-72
2024/04/03 00:34:46;;;;;;;5.30;4.80;;;11.20;99.90;;;;;;5056086;28;20223;-72
2024/04/03 00:37:12;;;;;;;3.87;3.23;;;11.20;99.90;;;;;;5064215;28;20249;-72
2024/04/03 00:39:38;;;;;;;5.70;3.13;;;11.20;99.90;;;;;;5062047;28;20460;-72
2024/04/03 00:42:04;;;;;;;3.23;2.60;;;11.20;99.90;;;;;;5059294;28;20238;-72
2024/04/03 00:44:31;;;;;;;2.90;2.53;;;11.20;99.90;;;;;;5058409;28;20219;-73
2024/04/03 00:47:01;;;;;;;7.30;2.43;;;11.20;99.90;;;;;;5053158;28;20466;-71
2024/04/03 00:49:27;;;;;;;5.23;2.30;;;11.20;99.90;;;;;;5061472;28;20457;-71
2024/04/03 00:51:53;;;;;;;6.37;1.87;;;11.20;99.90;;;;;;5040750;28;20846;-72
2024/04/03 00:54:20;;;;;;;2.00;1.40;;;11.20;99.90;;;;;;5061170;28;20476;-72
2024/04/03 00:56:47;;;;;;;3.83;1.83;;;11.20;99.90;;;;;;5055356;28;20230;-72
2024/04/03 00:59:13;;;;;;;1.50;1.20;;;11.20;99.90;;;;;;5041802;28;20450;-72
2024/04/03 01:01:38;;;;;;;1.17;1.07;;;11.20;99.90;;;;;;5062693;28;20474;-72
2024/04/03 01:04:04;;;;;;;1.60;1.00;;;11.20;99.90;;;;;;5037613;28;20461;-72
2024/04/03 01:06:30;;;;;;;1.47;1.13;;;11.20;99.90;;;;;;5042601;28;20300;-72
2024/04/03 01:08:55;;;;;;;1.83;0.90;;;11.20;99.90;;;;;;5041438;28;20272;-72
2024/04/03 01:11:22;;;;;;;1.10;1.00;;;11.20;99.90;;;;;;5058823;28;20218;-72
2024/04/03 01:13:47;;;;;;;1.60;1.20;;;11.20;99.90;;;;;;5055643;28;20558;-72
2024/04/03 01:16:13;;;;;;;1.10;1.00;;;11.20;99.90;;;;;;5053653;28;20476;-72
2024/04/03 01:18:39;;;;;;;1.33;0.83;;;11.20;99.90;;;;;;5057730;28;20208;-73
2024/04/03 01:21:04;;;;;;;1.20;0.93;;;11.20;99.90;;;;;;5056660;28;20231;-72
2024/04/03 01:23:30;;;;;;;2.30;1.73;;;11.20;99.90;;;;;;5043466;28;20640;-72
2024/04/03 01:25:56;;;;;;;1.50;1.40;;;11.20;99.90;;;;;;5055318;28;20211;-71
2024/04/03 01:28:22;;;;;;;1.07;1.00;;;11.20;99.90;;;;;;5052572;28;20211;-70
2024/04/03 01:30:49;;;;;;;1.10;1.00;;;11.20;99.90;;;;;;5054049;28;20215;-71
2024/04/03 01:33:15;;;;;;;1.13;1.10;;;11.20;99.90;;;;;;5059779;28;20485;-72
2024/04/03 01:35:40;;;;;;;3.47;1.20;;;11.20;99.90;;;;;;5057061;28;20480;-72
2024/04/03 01:38:06;;;;;;;2.40;1.00;;;11.20;99.90;;;;;;5059098;28;20236;-71
2024/04/03 01:40:32;;;;;;;3.37;1.53;;;11.20;99.90;;;;;;5060917;28;20712;-73
2024/04/03 01:42:58;;;;;;;0.73;0.73;;;11.20;99.90;;;;;;5055230;28;20476;-70
2024/04/03 01:45:24;;;;;;;2.53;1.60;;;11.20;99.90;;;;;;5058397;28;20218;-72
2024/04/03 01:47:50;;;;;;;1.57;1.00;;;11.20;99.90;;;;;;5037502;28;20676;-70
2024/04/03 01:50:20;;;;;;;4.97;1.03;;;11.20;99.90;;;;;;5058900;28;20449;-70
2024/04/03 01:52:49;;;;;;;3.27;1.40;;;11.20;99.90;;;;;;5053307;28;20357;-69
2024/04/03 01:55:14;;;;;;;1.27;1.17;;;11.20;99.90;;;;;;5057596;28;20449;-70
2024/04/03 01:57:40;;;;;;;3.60;1.03;;;11.20;99.90;;;;;;5056867;28;20488;-72
2024/04/03 02:00:07;;;;;;;5.53;1.60;;;11.10;99.90;;;;;;5058901;28;20245;-72
2024/04/03 02:02:33;;;;;;;1.07;1.00;;;11.10;99.90;;;;;;5056838;28;20219;-71
2024/04/03 02:04:59;;;;;;;1.20;1.00;;;11.10;99.90;;;;;;5054811;28;20469;-71
2024/04/03 02:07:25;;;;;;;0.90;0.80;;;11.10;99.90;;;;;;5057608;28;20540;-71
2024/04/03 02:09:50;;;;;;;1.93;1.20;;;11.10;99.90;;;;;;5054588;28;20549;-71
2024/04/03 02:12:16;;;;;;;2.23;1.00;;;11.10;99.90;;;;;;5058965;28;20227;-72
2024/04/03 02:14:42;;;;;;;2.07;1.13;;;11.10;99.90;;;;;;5049213;28;20238;-72
2024/04/03 02:17:08;;;;;;;1.80;1.10;;;11.10;99.90;;;;;;5058827;28;20222;-71
2024/04/03 02:19:33;;;;;;;2.67;1.20;;;11.10;99.90;;;;;;5058244;28;20231;-72
2024/04/03 02:21:59;;;;;;;4.10;1.43;;;11.10;99.90;;;;;;5052988;28;20318;-72
2024/04/03 02:24:25;;;;;;;1.93;1.30;;;11.10;99.90;;;;;;5060644;28;20229;-71
2024/04/03 02:26:51;;;;;;;2.50;1.43;;;11.10;99.90;;;;;;5055222;28;20234;-71
2024/04/03 02:29:17;;;;;;;3.07;1.20;;;11.10;99.90;;;;;;5060410;28;20438;-71
2024/04/03 02:31:43;;;;;;;3.73;0.97;;;11.10;99.90;;;;;;5053255;28;20294;-71
2024/04/03 02:34:09;;;;;;;1.67;1.10;;;11.10;99.90;;;;;;5056940;28;20600;-71
2024/04/03 02:36:35;;;;;;;1.30;1.20;;;11.10;99.90;;;;;;5056803;28;20223;-72
2024/04/03 02:39:01;;;;;;;1.90;1.20;;;11.00;99.90;;;;;;5053588;28;20465;-70
2024/04/03 02:41:26;;;;;;;1.23;1.13;;;11.00;99.90;;;;;;5057114;28;20247;-72
2024/04/03 02:43:52;;;;;;;1.43;1.00;;;11.00;99.90;;;;;;5049692;28;20207;-72
2024/04/03 02:46:18;;;;;;;1.23;1.03;;;11.00;99.90;;;;;;5059269;28;20219;-72
2024/04/03 02:48:43;;;;;;;1.80;1.20;;;11.00;99.90;;;;;;5037167;28;20257;-71
2024/04/03 02:51:10;;;;;;;3.60;1.00;;;11.00;99.90;;;;;;5056500;28;20214;-71
2024/04/03 02:53:36;;;;;;;1.30;1.20;;;11.00;99.90;;;;;;5060893;28;20310;-71
2024/04/03 02:56:07;;;;;;;1.30;1.20;;;11.00;99.90;;;;;;5048870;28;20518;-72
2024/04/03 02:58:33;;;;;;;1.80;1.20;;;11.00;99.90;;;;;;5060270;28;20560;-70
2024/04/03 03:01:09;;;;;;;1.37;1.20;;;11.00;99.90;;;;;;5054778;28;20570;-73
2024/04/03 03:03:35;;;;;;;1.90;1.20;;;11.00;99.90;;;;;;5056859;28;20463;-71
2024/04/03 03:06:04;;;;;;;1.80;1.30;;;11.00;99.90;;;;;;5054998;28;20936;-70
2024/04/03 03:08:31;;;;;;;1.70;1.40;;;11.00;99.90;;;;;;5053787;28;20567;-72
2024/04/03 03:10:59;;;;;;;1.00;0.90;;;11.00;99.90;;;;;;5038313;28;20476;-72
2024/04/03 03:13:26;;;;;;;1.27;1.17;;;11.00;99.90;;;;;;5056940;28;20453;-71
2024/04/03 03:15:55;;;;;;;5.40;1.90;;;11.00;99.90;;;;;;5054657;28;20818;-71
2024/04/03 03:18:22;;;;;;;1.50;1.17;;;11.00;99.90;;;;;;5041675;28;20485;-72
2024/04/03 03:20:49;;;;;;;1.23;1.00;;;11.00;99.90;;;;;;5051763;28;20485;-72
2024/04/03 03:23:15;;;;;;;2.37;0.90;;;11.00;99.90;;;;;;5058629;28;20503;-71
2024/04/03 03:25:42;;;;;;;1.90;1.43;;;11.00;99.90;;;;;;5058973;28;20453;-72
2024/04/03 03:28:08;;;;;;;3.00;1.30;;;11.00;99.90;;;;;;5055071;28;20461;-72
2024/04/03 03:30:34;;;;;;;1.43;1.07;;;11.00;99.90;;;;;;5057506;28;21028;-71
2024/04/03 03:32:59;;;;;;;1.03;0.93;;;10.90;99.90;;;;;;5037558;28;20203;-72
2024/04/03 03:35:25;;;;;;;2.00;1.30;;;10.90;99.90;;;;;;5041102;28;20603;-71
2024/04/03 03:37:51;;;;;;;3.00;1.50;;;10.90;99.90;;;;;;5051980;28;20218;-72
2024/04/03 03:40:18;;;;;;;4.07;1.67;;;11.00;99.90;;;;;;5059961;28;20241;-70
2024/04/03 03:42:43;;;;;;;3.27;1.67;;;11.00;99.90;;;;;;5055112;28;20223;-72
2024/04/03 03:45:09;;;;;;;2.37;1.20;;;11.00;99.90;;;;;;5052090;28;20519;-71
2024/04/03 03:47:35;;;;;;;3.90;1.10;;;10.90;99.90;;;;;;5057857;28;20223;-72
2024/04/03 03:52:45;;;;;;;1.37;1.23;;;10.90;99.90;;;;;;5055305;28;20222;-72
2024/04/03 03:55:10;;;;;;;3.00;1.30;;;11.00;99.90;;;;;;5058782;28;20457;-71
2024/04/03 03:57:36;;;;;;;3.63;1.27;;;11.00;99.90;;;;;;5060011;28;20215;-72
2024/04/03 04:00:03;;;;;;;1.17;1.13;;;11.00;99.90;;;;;;5033519;28;20249;-71
2024/04/03 04:02:30;;;;;;;1.47;1.33;;;11.00;99.90;;;;;;5059423;28;20247;-72
2024/04/03 04:04:56;;;;;;;2.40;1.20;;;11.00;99.90;;;;;;5057025;28;20465;-71
2024/04/03 04:07:22;;;;;;;1.53;1.43;;;10.90;99.90;;;;;;5061246;28;20867;-71
2024/04/03 04:09:50;;;;;;;1.20;1.10;;;10.90;99.90;;;;;;5055295;28;20219;-72
2024/04/03 04:12:17;;;;;;;1.83;1.63;;;11.00;99.90;;;;;;5057338;28;20453;-72
2024/04/03 04:14:48;;;;;;;1.73;1.20;;;10.90;99.90;;;;;;5054109;28;20536;-71
2024/04/03 04:17:15;;;;;;;2.40;1.77;;;10.90;99.90;;;;;;5057408;28;20465;-72
2024/04/03 04:19:41;;;;;;;4.60;2.10;;;10.90;99.90;;;;;;5058365;28;20504;-70
2024/04/03 04:22:06;;;;;;;1.40;1.30;;;10.90;99.90;;;;;;5054137;28;20466;-72
2024/04/03 04:24:33;;;;;;;6.20;1.50;;;10.90;99.90;;;;;;5055110;28;20230;-72
2024/04/03 04:27:00;;;;;;;3.90;1.23;;;10.90;99.90;;;;;;5056554;28;20250;-72
2024/04/03 04:29:30;;;;;;;1.67;1.13;;;10.90;99.90;;;;;;5063968;28;20524;-72
2024/04/03 04:31:58;;;;;;;1.63;1.40;;;10.90;99.90;;;;;;5056427;28;20484;-72
2024/04/03 04:34:24;;;;;;;2.80;1.50;;;10.90;99.90;;;;;;5060625;28;20634;-71
2024/04/03 04:36:50;;;;;;;1.40;1.30;;;10.90;99.90;;;;;;5041436;28;20461;-72
2024/04/03 04:39:16;;;;;;;3.50;2.23;;;10.80;99.90;;;;;;5062943;28;20445;-72
2024/04/03 04:41:41;;;;;;;2.70;2.00;;;10.80;99.90;;;;;;5060458;28;20242;-72
2024/04/03 04:44:07;;;;;;;2.63;1.70;;;10.80;99.90;;;;;;5060450;28;20275;-71
2024/04/03 04:46:33;;;;;;;2.63;1.47;;;10.80;99.90;;;;;;5045595;28;20265;-72
2024/04/03 04:48:58;;;;;;;8.90;1.80;;;10.80;99.90;;;;;;5051533;28;20476;-71
2024/04/03 04:51:25;;;;;;;1.90;1.60;;;10.80;99.90;;;;;;5059833;28;20213;-72
2024/04/03 04:53:50;;;;;;;2.50;2.17;;;10.80;99.90;;;;;;5041674;28;20215;-72
2024/04/03 04:56:16;;;;;;;2.50;1.73;;;10.80;99.90;;;;;;5058489;28;20552;-72
2024/04/03 04:58:41;;;;;;;2.10;2.00;;;10.80;99.90;;;;;;5059785;28;20222;-72
2024/04/03 05:01:08;;;;;;;5.17;3.40;;;10.80;99.90;;;;;;5059673;28;20276;-72
2024/04/03 05:03:35;;;;;;;5.07;2.93;;;10.80;99.90;;;;;;5063931;28;20637;-72
2024/04/03 05:06:02;;;;;;;6.13;3.50;;;10.80;99.90;;;;;;5055907;28;20540;-72
2024/04/03 05:08:29;;;;;;;3.53;3.23;;;10.80;99.90;;;;;;5046053;28;20468;-72
2024/04/03 05:10:57;;;;;;;3.67;2.77;;;10.80;99.90;;;;;;5056660;28;20453;-72
2024/04/03 05:13:24;;;;;;;3.33;3.03;;;10.80;99.90;;;;;;5061165;28;21052;-69
2024/04/03 05:15:50;;;;;;;3.00;2.70;;;10.80;99.90;;;;;;5042474;28;20493;-72
2024/04/03 05:18:16;;;;;;;3.77;2.97;;;10.80;99.90;;;;;;5061494;28;20489;-71
2024/04/03 05:20:42;;;;;;;3.57;3.27;;;10.80;99.90;;;;;;5061172;28;20218;-71
2024/04/03 05:23:08;;;;;;;3.40;3.10;;;10.80;99.90;;;;;;5044049;28;20234;-70
2024/04/03 05:25:33;;;;;;;4.23;2.90;;;10.70;99.90;;;;;;5045532;28;20626;-72
2024/04/03 05:27:59;;;;;;;4.30;2.70;;;10.70;99.90;;;;;;5053562;28;20469;-72
2024/04/03 05:30:25;;;;;;;5.10;2.50;;;10.70;99.90;;;;;;5060762;28;20222;-72
2024/04/03 05:32:51;;;;;;;2.43;2.23;;;10.70;99.90;;;;;;5057238;28;20219;-71
2024/04/03 05:35:17;;;;;;;2.20;1.90;;;10.70;99.90;;;;;;5060834;28;20212;-72
2024/04/03 05:37:46;;;;;;;4.27;2.23;;;10.70;99.90;;;;;;5056522;28;20970;-73
2024/04/03 05:40:12;;;;;;;2.60;2.00;;;10.70;99.90;;;;;;5058265;28;20466;-73
2024/04/03 05:42:38;;;;;;;3.43;1.67;;;10.70;99.90;;;;;;5061492;28;20465;-72
2024/04/03 05:45:05;;;;;;;2.90;2.70;;;10.70;99.90;;;;;;5055395;28;20466;-73
2024/04/03 05:47:32;;;;;;;3.20;2.87;;;10.70;99.90;;;;;;5059952;28;20457;-73
2024/04/03 05:50:05;;;;;;;3.27;2.97;;;10.70;99.90;;;;;;5056183;28;20520;-72
2024/04/03 05:52:33;;;;;;;3.23;2.93;;;10.70;99.90;;;;;;5060380;28;20466;-72
2024/04/03 05:54:59;;;;;;;5.23;2.93;;;10.70;99.90;;;;;;5055424;28;20458;-72
2024/04/03 05:57:24;;;;;;;2.50;1.70;;;10.70;99.90;;;;;;5045761;28;21021;-73
2024/04/03 05:59:50;;;;;;;6.73;3.00;;;10.70;99.90;;;;;;5057453;28;20228;-72
2024/04/03 06:02:15;;;;;;;5.13;2.83;;;10.70;99.90;;;;;;5042234;28;20230;-72
2024/04/03 06:04:41;;;;;;;5.03;2.50;;;10.70;99.90;;;;;;5064121;28;20246;-73
2024/04/03 06:07:07;;;;;;;1.90;1.70;;;10.70;99.90;;;;;;5056658;28;20602;-72
2024/04/03 06:09:33;;;;;;;1.70;1.60;;;10.70;99.90;;;;;;5060132;28;20218;-73
2024/04/03 06:11:58;;;;;;;2.13;1.70;;;10.70;99.90;;;;;;5056613;28;20227;-72
2024/04/03 06:14:24;;;;;;;3.17;1.63;;;10.70;99.90;;;;;;5061335;28;20359;-73
2024/04/03 06:16:50;;;;;;;1.83;1.57;;;10.70;99.90;;;;;;5057158;28;20246;-72
2024/04/03 06:19:16;;;;;;;3.33;2.00;;;10.70;99.90;;;;;;5058584;28;20705;-72
2024/04/03 06:21:42;;;;;;;3.30;1.97;;;10.70;99.90;;;;;;5058413;28;20227;-72
2024/04/03 06:24:08;;;;;;;2.10;1.77;;;10.70;99.90;;;;;;5059416;28;20485;-71
2024/04/03 06:26:35;;;;;;;5.40;2.83;;;10.70;99.90;;;;;;5058450;28;20477;-72
2024/04/03 06:29:02;;;;;;;2.40;2.20;;;10.70;99.90;;;;;;5057056;28;20210;-72
2024/04/03 06:31:28;;;;;;;5.37;2.43;;;10.80;99.90;;;;;;5059068;28;20470;-71
2024/04/03 06:33:56;;;;;;;2.70;2.50;;;10.80;99.90;;;;;;5055939;28;20473;-72
2024/04/03 06:36:27;;;;;;;2.60;1.87;;;10.80;99.90;;;;;;5063093;28;20477;-72
2024/04/03 06:38:53;;;;;;;7.50;2.00;;;10.70;99.90;;;;;;5055658;28;20465;-72
2024/04/03 06:41:18;;;;;;;2.00;1.53;;;10.70;99.90;;;;;;5042514;28;20497;-71
2024/04/03 06:43:44;;;;;;;5.13;1.87;;;10.70;99.90;;;;;;5038308;28;20297;-72
2024/04/03 06:46:10;;;;;;;4.87;1.90;;;10.80;99.90;;;;;;5058923;28;20318;-72
2024/04/03 06:48:36;;;;;;;2.00;1.77;;;10.80;99.90;;;;;;5058332;28;20227;-72
2024/04/03 06:51:03;;;;;;;5.80;2.23;;;10.80;99.90;;;;;;5055981;28;20218;-72
2024/04/03 06:53:29;;;;;;;3.20;2.33;;;10.80;99.90;;;;;;5058642;28;20619;-72
2024/04/03 06:56:00;;;;;;;2.90;1.77;;;10.80;99.90;;;;;;5053757;28;20507;-72
2024/04/03 06:58:27;;;;;;;1.97;1.80;;;10.80;99.90;;;;;;5043565;28;20453;-72
2024/04/03 07:00:53;;;;;;;3.77;1.90;;;10.80;99.90;;;;;;5058238;28;20507;-72
2024/04/03 07:03:19;;;;;;;2.03;1.80;;;10.80;99.90;;;;;;5058203;28;20453;-72
2024/04/03 07:05:45;;;;;;;3.37;2.20;;;10.80;99.90;;;;;;5055742;28;20222;-71
2024/04/03 07:08:11;;;;;;;3.23;1.90;;;10.80;99.90;;;;;;5058036;28;20480;-72
2024/04/03 07:10:38;;;;;;;3.37;2.30;;;10.80;99.90;;;;;;5059197;28;20450;-72
2024/04/03 07:13:04;;;;;;;2.67;1.97;;;10.80;99.90;;;;;;5052142;28;20449;-72
2024/04/03 07:15:33;;;;;;;2.40;2.03;;;10.80;99.90;;;;;;5058137;28;20556;-72
2024/04/03 07:18:02;;;;;;;3.07;2.07;;;10.80;99.90;;;;;;5054927;28;20468;-71
2024/04/03 07:20:32;;;;;;;3.20;2.10;;;10.80;99.90;;;;;;5057265;28;20480;-72
2024/04/03 07:22:59;;;;;;;3.30;1.77;;;10.80;99.90;;;;;;5053819;28;20544;-73
2024/04/03 07:25:26;;;;;;;3.20;1.80;;;10.80;99.90;;;;;;5058859;28;20454;-72
2024/04/03 07:27:52;;;;;;;2.87;1.77;;;10.80;99.90;;;;;;5040056;28;20463;-72
2024/04/03 07:30:19;;;;;;;3.90;1.70;;;10.80;99.90;;;;;;5056923;28;20561;-71
2024/04/03 07:32:45;;;;;;;2.27;2.07;;;10.90;99.90;;;;;;5053797;28;20468;-72
2024/04/03 07:35:11;;;;;;;1.90;1.63;;;10.90;99.90;;;;;;5058528;28;20970;-72
2024/04/03 07:37:42;;;;;;;1.60;1.50;;;10.90;99.90;;;;;;5059920;28;20473;-72
2024/04/03 07:40:09;;;;;;;3.10;2.17;;;10.90;99.90;;;;;;5057762;28;20227;-71
2024/04/03 07:42:40;;;;;;;3.47;2.00;;;10.90;99.90;;;;;;5039891;28;20478;-71
2024/04/03 07:45:07;;;;;;;2.20;1.47;;;10.90;99.90;;;;;;5051638;28;20464;-72
2024/04/03 07:47:33;;;;;;;5.70;2.60;;;10.90;99.90;;;;;;5058012;28;20483;-72
2024/04/03 07:50:00;;;;;;;4.10;1.80;;;10.90;99.90;;;;;;5053069;28;20461;-72
2024/04/03 07:52:26;;;;;;;4.27;2.00;;;10.90;99.90;;;;;;5058847;28;20465;-72
2024/04/03 07:54:52;;;;;;;3.47;2.07;;;11.00;99.90;;;;;;5056117;28;20553;-72
2024/04/03 07:57:18;;;;;;;4.10;1.80;;;11.00;99.90;;;;;;5041622;28;20215;-72
2024/04/03 07:59:47;;;;;;;2.70;1.77;;;10.90;99.90;;;;;;5056650;28;20464;-72
2024/04/03 08:02:13;;;;;;;4.03;1.33;;;11.00;99.90;;;;;;5059711;28;20227;-73
2024/04/03 08:04:39;;;;;;;1.27;1.17;;;11.00;99.90;;;;;;5063406;28;20473;-73
2024/04/03 08:07:04;;;;;;;1.57;1.33;;;11.00;99.90;;;;;;5059253;28;20231;-73
2024/04/03 08:09:34;;;;;;;3.10;1.27;;;10.90;99.90;;;;;;5060814;28;20214;-72
2024/04/03 08:12:00;;;;;;;2.63;1.87;;;10.90;99.90;;;;;;5059340;28;20219;-72
2024/04/03 08:14:26;;;;;;;3.80;1.37;;;10.90;99.90;;;;;;5061159;28;20476;-70
2024/04/03 08:16:54;;;;;;;2.17;1.90;;;10.90;99.90;;;;;;5041454;28;20822;-72
2024/04/03 08:19:20;;;;;;;2.40;1.10;;;10.90;99.90;;;;;;5061725;28;20223;-72
2024/04/03 08:21:48;;;;;;;1.43;1.27;;;10.80;99.90;;;;;;5056874;28;20975;-72
2024/04/03 08:24:14;;;;;;;0.87;0.87;;;10.80;99.90;;;;;;5059889;28;20472;-72
2024/04/03 08:26:40;;;;;;;2.10;0.70;;;10.80;99.90;;;;;;5045211;28;20542;-73
2024/04/03 08:29:06;;;;;;;1.33;1.10;;;10.80;99.90;;;;;;5055041;28;20489;-71
2024/04/03 08:31:31;;;;;;;1.90;1.00;;;10.80;99.90;;;;;;5061674;28;20207;-72
2024/04/03 08:34:00;;;;;;;0.80;0.80;;;10.80;99.90;;;;;;5059333;28;20234;-72
2024/04/03 08:36:26;;;;;;;1.37;0.73;;;10.90;99.90;;;;;;5060289;28;20215;-73
2024/04/03 08:38:52;;;;;;;1.40;1.13;;;10.90;99.90;;;;;;5058627;28;20471;-73
2024/04/03 08:41:18;;;;;;;0.77;0.77;;;11.00;99.90;;;;;;5061682;28;20246;-72
2024/04/03 08:43:44;;;;;;;0.80;0.80;;;11.00;99.90;;;;;;5057102;28;21050;-72
2024/04/03 08:46:10;;;;;;;1.40;0.90;;;11.00;99.90;;;;;;5059299;28;20485;-72
2024/04/03 08:48:39;;;;;;;1.60;0.97;;;11.10;99.90;;;;;;5061571;28;20515;-72
2024/04/03 08:51:06;;;;;;;0.77;0.77;;;11.10;99.90;;;;;;5039042;28;20223;-73
2024/04/03 08:53:31;;;;;;;1.33;1.03;;;11.10;99.90;;;;;;5061725;28;20559;-72
2024/04/03 08:55:58;;;;;;;3.17;1.20;;;11.20;99.90;;;;;;5058907;28;20473;-72
2024/04/03 08:58:25;;;;;;;1.60;1.00;;;11.20;99.90;;;;;;5061809;28;20743;-72
2024/04/03 09:00:51;;;;;;;1.80;1.60;;;11.20;99.90;;;;;;5058149;28;20461;-72
2024/04/03 09:03:19;;;;;;;3.40;0.90;;;11.20;99.90;;;;;;5061309;28;20833;-72
2024/04/03 09:05:46;;;;;;;1.70;0.80;;;11.20;99.90;;;;;;5059137;28;20305;-72
2024/04/03 09:08:12;;;;;;;1.10;1.00;;;11.30;99.90;;;;;;5059456;28;20460;-71
2024/04/03 09:13:14;;;;;;;1.40;1.20;;;11.30;99.90;;;;;;5057994;28;20214;-71
2024/04/03 09:15:41;;;;;;;2.33;1.20;;;11.40;99.90;;;;;;5061589;28;20470;-73
2024/04/03 09:18:08;;;;;;;1.10;1.00;;;11.50;99.90;;;;;;5056330;28;20219;-72
2024/04/03 09:20:37;;;;;;;1.20;0.90;;;11.50;99.90;;;;;;5060128;28;20483;-72
2024/04/03 09:23:03;;;;;;;1.30;0.90;;;11.60;99.90;;;;;;5059369;28;20458;-72
2024/04/03 09:25:33;;;;;;;2.00;0.97;;;11.60;99.90;;;;;;5060192;28;20457;-73
2024/04/03 09:28:09;;;;;;;1.43;0.90;;;11.80;99.90;;;;;;5058234;28;20462;-73
2024/04/03 09:30:40;;;;;;;1.93;0.93;;;11.90;99.90;;;;;;5059367;28;20883;-73
2024/04/03 09:33:06;;;;;;;2.40;1.00;;;11.90;99.90;;;;;;5054236;28;20488;-72
2024/04/03 09:35:33;;;;;;;1.53;1.17;;;11.90;99.90;;;;;;5045625;28;20474;-72
2024/04/03 09:37:59;;;;;;;3.20;1.20;;;11.90;99.90;;;;;;5055172;28;20955;-73
2024/04/03 09:40:27;;;;;;;1.10;1.00;;;11.90;99.90;;;;;;5045170;28;20462;-72
2024/04/03 09:42:57;;;;;;;1.17;1.07;;;11.90;99.90;;;;;;5057944;28;20484;-72
2024/04/03 09:45:26;;;;;;;3.17;1.00;;;11.90;99.90;;;;;;5059412;28;20461;-72
2024/04/03 09:47:58;;;;;;;1.57;0.80;;;11.90;99.90;;;;;;5041075;28;20469;-72
2024/04/03 09:50:45;;;;;;;4.30;1.27;;;11.90;99.90;;;;;;5043893;28;20536;-73
2024/04/03 09:53:16;;;;;;;1.07;0.70;;;12.00;99.90;;;;;;5032045;28;20466;-72
2024/04/03 09:55:46;;;;;;;2.40;1.07;;;12.00;99.90;;;;;;5055375;28;20470;-73
2024/04/03 09:58:18;;;;;;;1.50;1.07;;;12.00;99.90;;;;;;5056740;28;20464;-73
2024/04/03 10:00:53;;;;;;;1.00;0.87;;;12.00;99.90;;;;;;5055903;28;20465;-73
2024/04/03 10:03:26;;;;;;;1.67;1.50;;;12.00;99.90;;;;;;5049375;28;21223;-72
2024/04/03 10:06:12;;;;;;;0.83;0.83;;;12.00;99.90;;;;;;5057233;28;20466;-73
2024/04/03 10:08:41;;;;;;;1.70;1.03;;;12.00;99.90;;;;;;5060962;28;20479;-72
2024/04/03 10:11:12;;;;;;;1.13;1.03;;;12.00;99.90;;;;;;5070999;28;20456;-73
2024/04/03 10:13:41;;;;;;;2.67;1.30;;;12.10;99.90;;;;;;5058062;28;20510;-72
2024/04/03 10:16:14;;;;;;;3.50;1.77;;;12.10;99.90;;;;;;5058143;28;20453;-72
2024/04/03 10:18:49;;;;;;;1.27;1.03;;;12.00;99.90;;;;;;5043724;28;20553;-73
2024/04/03 10:21:15;;;;;;;2.30;0.90;;;12.00;99.90;;;;;;5055741;28;20465;-72
2024/04/03 10:23:44;;;;;;;3.27;1.30;;;12.00;99.90;;;;;;5058489;28;20842;-73
2024/04/03 10:26:11;;;;;;;1.83;1.13;;;12.00;99.90;;;;;;5042271;28;20486;-72
2024/04/03 10:28:39;;;;;;;2.47;1.10;;;12.10;99.90;;;;;;5058145;28;20472;-73
2024/04/03 10:31:09;;;;;;;2.00;1.17;;;12.00;99.90;;;;;;5058763;28;20462;-73
2024/04/03 10:33:35;;;;;;;4.27;0.90;;;12.00;99.90;;;;;;5059243;28;20462;-72
2024/04/03 10:36:01;;;;;;;1.60;1.03;;;12.00;99.90;;;;;;5055711;28;20889;-72
2024/04/03 10:38:27;;;;;;;1.10;0.87;;;12.00;99.90;;;;;;5049855;28;20254;-72
2024/04/03 10:40:56;;;;;;;3.53;1.27;;;12.00;99.90;;;;;;5066451;28;20469;-73
2024/04/03 10:43:22;;;;;;;1.50;1.13;;;12.00;99.90;;;;;;5063604;28;20513;-71
2024/04/03 10:45:52;;;;;;;1.07;0.90;;;12.10;99.90;;;;;;5064983;28;20548;-71
2024/04/03 10:48:23;;;;;;;1.17;1.07;;;12.20;99.90;;;;;;5066044;28;20218;-72
2024/04/03 10:50:48;;;;;;;1.60;1.10;;;12.30;99.90;;;;;;5064928;28;20472;-72
2024/04/03 10:53:14;;;;;;;0.90;0.83;;;12.30;99.90;;;;;;5058858;28;20446;-72
2024/04/03 10:55:41;;;;;;;0.87;0.87;;;12.40;99.90;;;;;;5059855;28;20688;-73
2024/04/03 10:58:08;;;;;;;0.90;0.80;;;12.40;99.90;;;;;;5036872;28;20219;-73
2024/04/03 11:00:35;;;;;;;1.33;1.23;;;12.40;99.90;;;;;;5056370;28;20568;-74
2024/04/03 11:03:02;;;;;;;1.50;0.90;;;12.40;99.90;;;;;;5055372;28;20473;-72
2024/04/03 11:05:29;;;;;;;1.10;0.80;;;12.40;99.90;;;;;;5059072;28;21034;-73
2024/04/03 11:07:55;;;;;;;0.60;0.60;;;12.40;99.90;;;;;;5056029;28;20493;-72
2024/04/03 11:10:21;;;;;;;1.33;0.83;;;12.30;99.90;;;;;;5060911;28;20496;-71
2024/04/03 11:12:47;;;;;;;7.80;0.83;;;12.30;99.90;;;;;;5057388;28;20521;-72
2024/04/03 11:15:22;;;;;;;1.17;0.97;;;12.40;99.90;;;;;;5040956;28;20501;-72
2024/04/03 11:17:48;;;;;;;3.07;0.67;;;12.40;99.90;;;;;;5038141;28;20457;-73
2024/04/03 11:20:14;;;;;;;1.57;0.73;;;12.40;99.90;;;;;;5059685;28;20461;-72
2024/04/03 11:22:40;;;;;;;1.03;0.90;;;12.40;99.90;;;;;;5058147;28;20477;-73
2024/04/03 11:25:12;;;;;;;1.00;1.00;;;12.40;99.90;;;;;;5041677;28;20223;-73
2024/04/03 11:27:39;;;;;;;1.20;1.10;;;12.40;99.90;;;;;;5059493;28;20219;-71
2024/04/03 11:30:06;;;;;;;1.00;1.00;;;12.40;99.90;;;;;;5039970;28;20473;-72
2024/04/03 11:32:35;;;;;;;0.90;0.90;;;12.40;99.90;;;;;;5057506;28;20234;-72
2024/04/03 11:35:02;;;;;;;0.70;0.70;;;12.40;99.90;;;;;;5054746;28;20465;-72
2024/04/03 11:37:27;;;;;;;0.80;0.70;;;12.30;99.90;;;;;;5072418;28;20954;-72
2024/04/03 11:39:53;;;;;;;2.33;0.73;;;12.30;99.90;;;;;;5056371;28;20535;-73
2024/04/03 11:42:19;;;;;;;0.70;0.70;;;12.30;99.90;;;;;;5056561;28;20743;-72
2024/04/03 11:44:44;;;;;;;0.70;0.70;;;12.20;99.90;;;;;;5056032;28;20273;-72
2024/04/03 11:47:10;;;;;;;1.10;1.03;;;12.30;99.90;;;;;;5057060;28;20231;-71
2024/04/03 11:49:36;;;;;;;0.67;0.63;;;12.30;99.90;;;;;;5060634;28;20234;-72
2024/04/03 11:52:02;;;;;;;0.60;0.60;;;12.30;99.90;;;;;;5055452;28;20233;-72
2024/04/03 11:54:27;;;;;;;1.77;1.47;;;12.20;99.90;;;;;;5055696;28;20219;-72
2024/04/03 11:56:55;;;;;;;0.67;0.67;;;12.20;99.90;;;;;;5053923;28;20231;-72
2024/04/03 11:59:21;;;;;;;4.83;1.30;;;12.20;99.90;;;;;;5059961;28;20311;-72
2024/04/03 12:01:47;;;;;;;0.93;0.70;;;12.20;99.90;;;;;;5067674;28;20469;-72
2024/04/03 12:04:13;;;;;;;0.80;0.70;;;12.20;99.90;;;;;;5063447;28;20469;-72
2024/04/03 12:06:40;;;;;;;2.10;1.00;;;12.20;99.90;;;;;;5062666;28;20288;-73
2024/04/03 12:09:05;;;;;;;0.87;0.70;;;12.20;99.90;;;;;;5065482;28;20215;-72
2024/04/03 12:11:31;;;;;;;1.00;0.90;;;12.20;99.90;;;;;;5047438;28;20540;-73
2024/04/03 12:13:57;;;;;;;1.10;0.70;;;12.20;99.90;;;;;;5065083;28;20222;-73
2024/04/03 12:16:26;;;;;;;0.90;0.80;;;12.20;99.90;;;;;;5063766;28;20652;-72
2024/04/03 12:19:16;;;;;;;1.27;1.00;;;12.20;99.90;;;;;;5062589;28;20219;-73
2024/04/03 12:21:43;;;;;;;1.37;0.70;;;12.20;99.90;;;;;;5061814;28;20469;-73
2024/04/03 12:24:09;;;;;;;0.80;0.80;;;12.20;99.90;;;;;;5078988;28;20482;-72
2024/04/03 12:26:36;;;;;;;1.57;0.90;;;12.20;99.90;;;;;;5046777;28;20470;-72
2024/04/03 12:29:02;;;;;;;2.60;0.80;;;12.20;99.90;;;;;;5061797;28;20454;-72
2024/04/03 12:31:27;;;;;;;1.60;0.70;;;12.20;99.90;;;;;;5058250;28;20807;-72
2024/04/03 12:33:53;;;;;;;0.90;0.90;;;12.30;99.90;;;;;;5063193;28;20234;-73
2024/04/03 12:36:19;;;;;;;1.97;0.70;;;12.30;99.90;;;;;;5062540;28;20659;-72
2024/04/03 12:38:46;;;;;;;0.73;0.70;;;12.30;99.90;;;;;;5062930;28;20280;-72
2024/04/03 12:41:12;;;;;;;0.70;0.70;;;12.30;99.90;;;;;;5061527;28;20241;-72
2024/04/03 12:43:37;;;;;;;0.90;0.90;;;12.30;99.90;;;;;;5062457;28;20458;-72
2024/04/03 12:46:03;;;;;;;0.63;0.60;;;12.30;99.90;;;;;;5063153;28;20485;-73
2024/04/03 12:48:29;;;;;;;2.70;0.80;;;12.30;99.90;;;;;;5065904;28;20245;-72
2024/04/03 12:50:55;;;;;;;1.57;0.60;;;12.30;99.90;;;;;;5064478;28;20269;-73